createdAt,value
2023-03-17T00:00:00.787Z,75.18
2023-03-17T00:01:00.897Z,74.57
2023-03-17T00:02:00.774Z,76.31
2023-03-17T00:03:00.779Z,75.18
2023-03-17T00:04:00.805Z,75.28
2023-03-17T00:05:00.727Z,74.57
2023-03-17T00:06:00.710Z,74.98
2023-03-17T00:07:00.739Z,74.87
2023-03-17T00:08:00.689Z,74.66
2023-03-17T00:09:00.692Z,74.87
2023-03-17T00:10:00.663Z,74.46
2023-03-17T00:11:00.695Z,76.00
2023-03-17T00:12:00.643Z,75.90
2023-03-17T00:13:00.619Z,74.36
2023-03-17T00:14:00.623Z,74.57
2023-03-17T00:15:00.598Z,74.46
2023-03-17T00:16:00.620Z,75.08
2023-03-17T00:17:00.578Z,74.15
2023-03-17T00:18:00.563Z,74.98
2023-03-17T00:19:00.569Z,75.38
2023-03-17T00:20:00.537Z,75.79
2023-03-17T00:21:00.548Z,75.90
2023-03-17T00:22:00.508Z,74.66
2023-03-17T00:23:00.494Z,76.41
2023-03-17T00:24:00.491Z,75.49
2023-03-17T00:25:00.484Z,76.92
2023-03-17T00:26:00.451Z,76.41
2023-03-17T00:27:00.441Z,76.31
2023-03-17T00:28:00.429Z,76.72
2023-03-17T00:29:00.421Z,77.74
2023-03-17T00:30:00.406Z,79.28
2023-03-17T00:31:00.427Z,77.33
2023-03-17T00:32:01.043Z,77.03
2023-03-17T00:33:00.451Z,77.95
2023-03-17T00:34:00.354Z,78.56
2023-03-17T00:35:00.341Z,78.36
2023-03-17T00:36:00.367Z,78.97
2023-03-17T00:37:00.303Z,79.42
2023-03-17T00:38:00.312Z,79.28
2023-03-17T00:39:00.387Z,79.11
2023-03-17T00:40:00.295Z,78.09
2023-03-17T00:41:00.252Z,80.45
2023-03-17T00:42:00.250Z,79.93
2023-03-17T00:43:00.223Z,79.52
2023-03-17T00:44:00.231Z,79.22
2023-03-17T00:45:00.201Z,78.50
2023-03-17T00:46:00.191Z,79.63
2023-03-17T00:47:00.234Z,79.52
2023-03-17T00:48:00.160Z,79.42
2023-03-17T00:49:00.161Z,79.28
2023-03-17T00:50:00.143Z,79.90
2023-03-17T00:51:00.127Z,80.65
2023-03-17T00:52:00.152Z,79.11
2023-03-17T00:53:00.114Z,80.21
2023-03-17T00:54:00.130Z,80.96
2023-03-17T00:55:00.073Z,80.86
2023-03-17T00:56:00.072Z,79.42
2023-03-17T00:57:00.034Z,80.24
2023-03-17T00:58:00.046Z,81.78
2023-03-17T00:59:00.030Z,80.45
2023-03-17T01:00:00.000Z,81.27
2023-03-17T01:00:59.996Z,80.45
2023-03-17T01:02:00.012Z,80.45
2023-03-17T01:02:59.958Z,80.24
2023-03-17T01:03:59.965Z,80.55
2023-03-17T01:05:06.319Z,80.86
2023-03-17T01:06:00.927Z,80.76
2023-03-17T01:06:59.904Z,81.06
2023-03-17T01:07:59.913Z,82.09
2023-03-17T01:08:59.935Z,82.19
2023-03-17T01:09:59.874Z,81.68
2023-03-17T01:10:59.853Z,81.85
2023-03-17T01:11:59.841Z,80.76
2023-03-17T01:12:59.823Z,81.06
2023-03-17T01:13:59.832Z,81.57
2023-03-17T01:14:59.804Z,81.99
2023-03-17T01:15:59.835Z,82.50
2023-03-17T01:16:59.781Z,81.27
2023-03-17T01:17:59.779Z,81.16
2023-03-17T01:18:59.768Z,81.16
2023-03-17T01:19:59.739Z,81.48
2023-03-17T01:20:59.720Z,81.57
2023-03-17T01:21:59.711Z,82.19
2023-03-17T01:22:59.698Z,80.96
2023-03-17T01:23:59.692Z,81.57
2023-03-17T01:24:59.662Z,81.57
2023-03-17T01:25:59.656Z,80.45
2023-03-17T01:26:59.634Z,80.55
2023-03-17T01:27:59.640Z,80.14
2023-03-17T01:28:59.625Z,80.35
2023-03-17T01:29:59.603Z,81.06
2023-03-17T01:30:59.584Z,81.16
2023-03-17T01:31:59.646Z,80.65
2023-03-17T01:32:59.592Z,80.35
2023-03-17T01:33:59.558Z,80.96
2023-03-17T01:34:59.532Z,80.96
2023-03-17T01:35:59.567Z,81.27
2023-03-17T01:36:59.505Z,79.73
2023-03-17T01:37:59.515Z,80.86
2023-03-17T01:38:59.495Z,80.55
2023-03-17T01:39:59.483Z,80.55
2023-03-17T01:40:59.451Z,80.24
2023-03-17T01:41:59.459Z,80.24
2023-03-17T01:42:59.454Z,80.04
2023-03-17T01:43:59.421Z,80.65
2023-03-17T01:44:59.420Z,80.24
2023-03-17T01:45:59.442Z,80.14
2023-03-17T01:46:59.366Z,79.52
2023-03-17T01:47:59.383Z,79.42
2023-03-17T01:48:59.376Z,79.93
2023-03-17T01:49:59.337Z,80.14
2023-03-17T01:50:59.318Z,79.01
2023-03-17T01:51:59.306Z,79.73
2023-03-17T01:52:59.306Z,79.42
2023-03-17T01:53:59.287Z,79.01
2023-03-17T01:54:59.277Z,78.70
2023-03-17T01:55:59.258Z,79.22
2023-03-17T01:56:59.238Z,79.63
2023-03-17T01:57:59.229Z,79.93
2023-03-17T01:58:59.242Z,78.19
2023-03-17T01:59:59.216Z,79.22
2023-03-17T02:00:59.252Z,79.01
2023-03-17T02:01:59.187Z,78.70
2023-03-17T02:02:59.158Z,79.11
2023-03-17T02:03:59.174Z,79.32
2023-03-17T02:04:59.151Z,79.63
2023-03-17T02:05:59.132Z,79.63
2023-03-17T02:06:59.261Z,79.01
2023-03-17T02:07:59.126Z,78.60
2023-03-17T02:08:59.084Z,78.70
2023-03-17T02:09:59.068Z,78.50
2023-03-17T02:10:59.049Z,79.83
2023-03-17T02:11:59.045Z,79.73
2023-03-17T02:12:59.047Z,78.50
2023-03-17T02:13:59.066Z,79.83
2023-03-17T02:14:59.019Z,78.19
2023-03-17T02:15:59.000Z,79.11
2023-03-17T02:16:59.031Z,78.60
2023-03-17T02:17:58.970Z,78.60
2023-03-17T02:18:58.948Z,78.60
2023-03-17T02:19:58.951Z,77.68
2023-03-17T02:20:58.921Z,77.78
2023-03-17T02:21:58.935Z,80.04
2023-03-17T02:22:58.901Z,79.93
2023-03-17T02:23:58.887Z,79.93
2023-03-17T02:24:58.879Z,80.14
2023-03-17T02:25:58.857Z,80.69
2023-03-17T02:26:58.848Z,79.25
2023-03-17T02:27:58.831Z,79.77
2023-03-17T02:28:58.809Z,78.70
2023-03-17T02:29:58.847Z,79.42
2023-03-17T02:30:58.826Z,80.55
2023-03-17T02:31:58.780Z,80.69
2023-03-17T02:32:58.812Z,79.56
2023-03-17T02:33:58.752Z,79.77
2023-03-17T02:34:58.764Z,81.30
2023-03-17T02:35:58.779Z,80.07
2023-03-17T02:36:58.758Z,80.18
2023-03-17T02:37:58.729Z,80.69
2023-03-17T02:38:58.684Z,80.07
2023-03-17T02:39:58.882Z,81.41
2023-03-17T02:40:58.659Z,79.97
2023-03-17T02:41:58.651Z,80.69
2023-03-17T02:42:58.627Z,81.71
2023-03-17T02:43:58.624Z,81.20
2023-03-17T02:44:58.631Z,81.20
2023-03-17T02:45:58.665Z,81.10
2023-03-17T02:46:58.590Z,81.00
2023-03-17T02:47:58.580Z,81.62
2023-03-17T02:48:58.560Z,81.30
2023-03-17T02:49:58.569Z,81.62
2023-03-17T02:50:58.536Z,81.71
2023-03-17T02:51:58.508Z,81.00
2023-03-17T02:52:58.558Z,81.51
2023-03-17T02:53:58.500Z,81.41
2023-03-17T02:54:58.475Z,81.62
2023-03-17T02:55:58.467Z,80.90
2023-03-17T02:56:58.453Z,81.10
2023-03-17T02:57:58.477Z,81.71
2023-03-17T02:58:58.421Z,80.28
2023-03-17T02:59:58.431Z,82.13
2023-03-17T03:00:58.402Z,82.13
2023-03-17T03:01:58.427Z,80.69
2023-03-17T03:02:58.377Z,80.69
2023-03-17T03:03:58.364Z,81.20
2023-03-17T03:04:58.358Z,81.30
2023-03-17T03:05:58.336Z,81.82
2023-03-17T03:06:58.326Z,81.71
2023-03-17T03:07:58.314Z,81.62
2023-03-17T03:08:58.291Z,81.71
2023-03-17T03:09:58.302Z,82.13
2023-03-17T03:10:58.271Z,82.64
2023-03-17T03:11:58.252Z,84.53
2023-03-17T03:12:58.241Z,82.57
2023-03-17T03:13:58.254Z,82.47
2023-03-17T03:14:58.244Z,82.06
2023-03-17T03:15:58.257Z,82.03
2023-03-17T03:16:58.191Z,82.95
2023-03-17T03:17:58.186Z,82.89
2023-03-17T03:18:58.167Z,82.27
2023-03-17T03:19:58.185Z,82.64
2023-03-17T03:20:58.137Z,82.27
2023-03-17T03:21:58.139Z,81.55
2023-03-17T03:22:58.109Z,82.37
2023-03-17T03:23:58.102Z,82.89
2023-03-17T03:24:58.101Z,82.57
2023-03-17T03:25:58.093Z,82.47
2023-03-17T03:26:58.062Z,82.23
2023-03-17T03:27:58.051Z,82.33
2023-03-17T03:28:58.030Z,81.20
2023-03-17T03:29:58.054Z,80.38
2023-03-17T03:30:57.998Z,81.71
2023-03-17T03:31:57.992Z,81.30
2023-03-17T03:32:58.084Z,81.51
2023-03-17T03:33:57.965Z,82.23
2023-03-17T03:34:57.945Z,81.45
2023-03-17T03:35:57.965Z,82.68
2023-03-17T03:36:57.929Z,81.96
2023-03-17T03:37:57.934Z,81.45
2023-03-17T03:38:57.907Z,81.76
2023-03-17T03:39:57.916Z,81.96
2023-03-17T03:40:57.881Z,82.17
2023-03-17T03:41:57.864Z,81.96
2023-03-17T03:42:57.847Z,81.86
2023-03-17T03:43:57.829Z,82.27
2023-03-17T03:44:57.826Z,82.78
2023-03-17T03:45:57.812Z,81.34
2023-03-17T03:46:57.788Z,81.45
2023-03-17T03:47:57.777Z,80.18
2023-03-17T03:48:57.762Z,80.90
2023-03-17T03:49:57.769Z,80.11
2023-03-17T03:50:57.751Z,80.69
2023-03-17T03:51:57.721Z,79.87
2023-03-17T03:52:57.701Z,80.28
2023-03-17T03:53:57.760Z,80.79
2023-03-17T03:54:57.691Z,79.49
2023-03-17T03:55:57.703Z,79.19
2023-03-17T03:56:57.652Z,80.28
2023-03-17T03:57:57.642Z,80.90
2023-03-17T03:58:57.623Z,80.83
2023-03-17T03:59:57.633Z,81.76
2023-03-17T04:00:57.591Z,81.96
2023-03-17T04:01:57.591Z,82.47
2023-03-17T04:02:57.667Z,82.37
2023-03-17T04:03:57.593Z,80.83
2023-03-17T04:04:57.570Z,81.34
2023-03-17T04:05:57.537Z,80.42
2023-03-17T04:06:57.521Z,80.63
2023-03-17T04:07:57.522Z,81.96
2023-03-17T04:08:58.441Z,81.24
2023-03-17T04:09:57.473Z,81.96
2023-03-17T04:10:57.472Z,82.37
2023-03-17T04:11:57.457Z,81.14
2023-03-17T04:12:57.479Z,82.47
2023-03-17T04:13:57.422Z,82.37
2023-03-17T04:14:57.423Z,81.24
2023-03-17T04:15:58.403Z,81.24
2023-03-17T04:16:57.386Z,81.45
2023-03-17T04:17:57.370Z,80.93
2023-03-17T04:18:57.440Z,81.45
2023-03-17T04:19:57.363Z,82.17
2023-03-17T04:20:57.334Z,82.57
2023-03-17T04:21:57.324Z,82.57
2023-03-17T04:22:57.324Z,82.99
2023-03-17T04:23:57.302Z,81.55
2023-03-17T04:24:57.284Z,81.55
2023-03-17T04:25:57.273Z,81.55
2023-03-17T04:26:57.261Z,82.06
2023-03-17T04:27:57.264Z,81.65
2023-03-17T04:28:57.222Z,81.76
2023-03-17T04:29:57.219Z,83.91
2023-03-17T04:30:57.212Z,82.37
2023-03-17T04:31:57.337Z,82.06
2023-03-17T04:32:57.231Z,82.99
2023-03-17T04:33:57.167Z,82.78
2023-03-17T04:34:57.305Z,84.01
2023-03-17T04:35:57.174Z,83.09
2023-03-17T04:36:57.118Z,83.19
2023-03-17T04:37:57.109Z,83.40
2023-03-17T04:38:57.098Z,83.70
2023-03-17T04:39:57.082Z,83.91
2023-03-17T04:40:57.081Z,83.81
2023-03-17T04:41:57.047Z,84.53
2023-03-17T04:42:57.038Z,84.42
2023-03-17T04:43:57.025Z,84.01
2023-03-17T04:44:57.026Z,84.84
2023-03-17T04:45:57.075Z,85.14
2023-03-17T04:46:56.986Z,84.63
2023-03-17T04:47:56.970Z,84.63
2023-03-17T04:48:56.967Z,84.12
2023-03-17T04:49:56.967Z,83.09
2023-03-17T04:50:56.938Z,82.99
2023-03-17T04:51:56.923Z,84.22
2023-03-17T04:52:56.927Z,84.53
2023-03-17T04:53:56.896Z,83.91
2023-03-17T04:54:56.888Z,84.63
2023-03-17T04:55:56.859Z,84.74
2023-03-17T04:56:56.854Z,84.12
2023-03-17T04:57:56.862Z,84.32
2023-03-17T04:58:56.837Z,83.81
2023-03-17T04:59:56.807Z,83.19
2023-03-17T05:00:56.833Z,83.61
2023-03-17T05:01:56.798Z,84.12
2023-03-17T05:02:56.790Z,84.32
2023-03-17T05:03:56.758Z,83.91
2023-03-17T05:04:56.749Z,83.81
2023-03-17T05:05:56.729Z,84.22
2023-03-17T05:06:56.720Z,82.78
2023-03-17T05:07:56.719Z,83.29
2023-03-17T05:08:56.695Z,83.40
2023-03-17T05:09:56.668Z,84.01
2023-03-17T05:10:56.693Z,83.81
2023-03-17T05:11:56.648Z,81.96
2023-03-17T05:12:56.639Z,82.27
2023-03-17T05:13:56.630Z,83.50
2023-03-17T05:14:56.620Z,82.27
2023-03-17T05:15:56.619Z,82.27
2023-03-17T05:16:56.675Z,83.29
2023-03-17T05:17:56.581Z,84.22
2023-03-17T05:18:56.562Z,82.89
2023-03-17T05:19:56.538Z,83.91
2023-03-17T05:20:56.559Z,82.57
2023-03-17T05:21:56.530Z,82.37
2023-03-17T05:22:56.524Z,81.76
2023-03-17T05:23:56.490Z,82.68
2023-03-17T05:24:56.478Z,82.06
2023-03-17T05:25:56.472Z,82.99
2023-03-17T05:26:56.476Z,82.47
2023-03-17T05:27:56.434Z,83.40
2023-03-17T05:28:56.430Z,83.75
2023-03-17T05:29:56.409Z,83.44
2023-03-17T05:30:56.457Z,84.63
2023-03-17T05:31:56.503Z,83.70
2023-03-17T05:32:56.462Z,82.51
2023-03-17T05:33:56.364Z,84.32
2023-03-17T05:34:56.351Z,83.64
2023-03-17T05:35:56.393Z,83.54
2023-03-17T05:36:56.337Z,84.36
2023-03-17T05:37:56.322Z,86.00
2023-03-17T05:38:56.298Z,85.90
2023-03-17T05:39:56.281Z,83.95
2023-03-17T05:40:56.279Z,84.36
2023-03-17T05:41:56.254Z,84.47
2023-03-17T05:42:56.242Z,84.05
2023-03-17T05:43:56.248Z,84.77
2023-03-17T05:44:56.218Z,84.77
2023-03-17T05:45:56.261Z,84.98
2023-03-17T05:46:56.184Z,86.21
2023-03-17T05:47:56.170Z,85.49
2023-03-17T05:48:56.168Z,84.77
2023-03-17T05:49:56.140Z,85.60
2023-03-17T05:50:56.161Z,85.60
2023-03-17T05:51:56.121Z,87.55
2023-03-17T05:52:56.122Z,87.55
2023-03-17T05:53:56.118Z,87.45
2023-03-17T05:54:56.092Z,86.72
2023-03-17T05:55:56.076Z,86.32
2023-03-17T05:56:56.081Z,86.32
2023-03-17T05:57:56.034Z,86.93
2023-03-17T05:58:56.044Z,86.72
2023-03-17T05:59:56.014Z,86.52
2023-03-17T06:00:56.025Z,85.90
2023-03-17T06:01:55.985Z,87.24
2023-03-17T06:02:56.015Z,85.80
2023-03-17T06:03:56.029Z,86.93
2023-03-17T06:04:55.955Z,87.85
2023-03-17T06:05:55.993Z,89.29
2023-03-17T06:06:55.930Z,90.53
2023-03-17T06:07:56.669Z,87.24
2023-03-17T06:08:55.903Z,87.34
2023-03-17T06:09:55.891Z,97.27
2023-03-17T06:10:55.885Z,85.04
2023-03-17T06:11:55.847Z,84.74
2023-03-17T06:12:55.854Z,85.04
2023-03-17T06:13:55.828Z,84.94
2023-03-17T06:14:55.823Z,83.70
2023-03-17T06:15:55.836Z,84.01
2023-03-17T06:16:55.810Z,84.42
2023-03-17T06:17:55.783Z,86.38
2023-03-17T06:18:55.771Z,86.79
2023-03-17T06:19:55.773Z,85.86
2023-03-17T06:20:55.782Z,85.80
2023-03-17T06:21:55.718Z,86.58
2023-03-17T06:23:04.323Z,87.10
2023-03-17T06:23:56.714Z,86.89
2023-03-17T06:24:56.156Z,86.27
2023-03-17T06:25:55.685Z,85.04
2023-03-17T06:26:55.660Z,85.66
2023-03-17T06:27:55.638Z,84.94
2023-03-17T06:28:55.644Z,85.55
2023-03-17T06:29:55.620Z,84.94
2023-03-17T06:30:55.678Z,86.79
2023-03-17T06:31:56.923Z,85.55
2023-03-17T06:32:55.653Z,83.91
2023-03-17T06:33:55.578Z,85.35
2023-03-17T06:34:55.581Z,84.53
2023-03-17T06:35:55.698Z,85.04
2023-03-17T06:36:55.540Z,85.46
2023-03-17T06:37:55.513Z,82.68
2023-03-17T06:38:55.508Z,83.91
2023-03-17T06:39:55.481Z,84.39
2023-03-17T06:40:55.490Z,84.28
2023-03-17T06:41:55.449Z,83.67
2023-03-17T06:42:55.463Z,84.28
2023-03-17T06:43:55.431Z,82.95
2023-03-17T06:44:55.431Z,83.56
2023-03-17T06:45:55.418Z,82.84
2023-03-17T06:46:55.408Z,83.26
2023-03-17T06:47:55.403Z,82.95
2023-03-17T06:48:55.370Z,83.05
2023-03-17T06:49:55.353Z,80.79
2023-03-17T06:50:55.358Z,80.86
2023-03-17T06:51:55.328Z,81.68
2023-03-17T06:52:55.320Z,80.55
2023-03-17T06:53:55.291Z,80.04
2023-03-17T06:54:55.289Z,81.48
2023-03-17T06:55:55.281Z,80.86
2023-03-17T06:56:55.269Z,79.42
2023-03-17T06:57:55.250Z,79.22
2023-03-17T06:58:55.231Z,79.93
2023-03-17T06:59:55.211Z,78.39
2023-03-17T07:00:55.231Z,78.56
2023-03-17T07:01:55.207Z,77.23
2023-03-17T07:02:55.187Z,77.74
2023-03-17T07:03:55.165Z,77.44
2023-03-17T07:04:55.201Z,77.84
2023-03-17T07:05:55.161Z,76.62
2023-03-17T07:06:55.128Z,77.74
2023-03-17T07:07:55.109Z,77.23
2023-03-17T07:08:55.102Z,76.41
2023-03-17T07:09:55.126Z,75.90
2023-03-17T07:10:55.109Z,76.27
2023-03-17T07:11:55.059Z,75.69
2023-03-17T07:12:55.066Z,75.35
2023-03-17T07:13:55.063Z,76.48
2023-03-17T07:14:55.080Z,76.37
2023-03-17T07:15:55.528Z,76.48
2023-03-17T07:16:55.014Z,74.94
2023-03-17T07:17:54.989Z,75.56
2023-03-17T07:18:54.974Z,74.22
2023-03-17T07:19:54.952Z,75.35
2023-03-17T07:20:54.993Z,75.31
2023-03-17T07:21:54.924Z,76.75
2023-03-17T07:22:54.940Z,74.32
2023-03-17T07:23:54.918Z,73.81
2023-03-17T07:24:54.901Z,74.70
2023-03-17T07:25:54.916Z,73.78
2023-03-17T07:26:54.863Z,74.70
2023-03-17T07:27:54.843Z,74.80
2023-03-17T07:28:54.858Z,73.27
2023-03-17T07:29:54.825Z,72.75
2023-03-17T07:30:54.934Z,71.93
2023-03-17T07:31:54.906Z,72.03
2023-03-17T07:32:54.819Z,72.72
2023-03-17T07:33:57.233Z,72.92
2023-03-17T07:34:54.782Z,73.33
2023-03-17T07:35:54.824Z,71.69
2023-03-17T07:36:54.743Z,71.59
2023-03-17T07:37:54.715Z,73.03
2023-03-17T07:38:54.713Z,70.77
2023-03-17T07:39:54.686Z,71.28
2023-03-17T07:40:54.699Z,69.75
2023-03-17T07:41:54.675Z,69.61
2023-03-17T07:42:54.654Z,70.74
2023-03-17T07:43:54.630Z,70.43
2023-03-17T07:44:54.627Z,71.15
2023-03-17T07:45:54.680Z,70.53
2023-03-17T07:46:54.617Z,70.74
2023-03-17T07:47:54.577Z,70.03
2023-03-17T07:48:54.592Z,70.12
2023-03-17T07:49:54.556Z,68.49
2023-03-17T07:50:54.543Z,68.49
2023-03-17T07:51:54.580Z,68.46
2023-03-17T07:52:54.527Z,68.35
2023-03-17T07:53:54.495Z,68.76
2023-03-17T07:54:54.495Z,69.58
2023-03-17T07:55:54.471Z,68.76
2023-03-17T07:56:54.478Z,68.25
2023-03-17T07:57:54.520Z,68.25
2023-03-17T07:58:54.434Z,68.25
2023-03-17T07:59:54.421Z,67.81
2023-03-17T08:00:54.403Z,68.12
2023-03-17T08:01:54.482Z,68.42
2023-03-17T08:03:08.912Z,66.78
2023-03-17T08:03:55.417Z,66.89
2023-03-17T08:04:54.361Z,66.78
2023-03-17T08:05:54.334Z,66.99
2023-03-17T08:06:54.359Z,67.81
2023-03-17T08:07:54.312Z,66.28
2023-03-17T08:08:54.310Z,67.50
2023-03-17T08:09:54.307Z,66.78
2023-03-17T08:10:54.275Z,67.30
2023-03-17T08:11:54.292Z,66.17
2023-03-17T08:12:54.256Z,66.07
2023-03-17T08:13:54.258Z,66.07
2023-03-17T08:14:54.222Z,67.10
2023-03-17T08:15:54.197Z,67.30
2023-03-17T08:16:54.260Z,67.40
2023-03-17T08:17:54.196Z,66.99
2023-03-17T08:18:54.188Z,66.17
2023-03-17T08:19:54.151Z,66.07
2023-03-17T08:20:54.142Z,66.28
2023-03-17T08:21:54.179Z,66.89
2023-03-17T08:22:54.115Z,66.48
2023-03-17T08:23:54.147Z,66.96
2023-03-17T08:24:54.109Z,66.04
2023-03-17T08:25:54.067Z,66.55
2023-03-17T08:26:54.128Z,67.07
2023-03-17T08:27:54.076Z,67.27
2023-03-17T08:28:54.033Z,66.14
2023-03-17T08:29:54.013Z,66.04
2023-03-17T08:30:54.055Z,65.63
2023-03-17T08:31:54.017Z,66.96
2023-03-17T08:32:54.058Z,65.84
2023-03-17T08:33:53.968Z,65.63
2023-03-17T08:34:53.939Z,65.84
2023-03-17T08:35:53.959Z,65.53
2023-03-17T08:36:53.948Z,65.22
2023-03-17T08:37:56.141Z,65.33
2023-03-17T08:38:53.900Z,65.22
2023-03-17T08:39:53.878Z,65.53
2023-03-17T08:40:53.870Z,65.12
2023-03-17T08:41:53.874Z,66.11
2023-03-17T08:42:53.843Z,65.80
2023-03-17T08:43:53.834Z,66.01
2023-03-17T08:44:53.813Z,65.19
2023-03-17T08:45:53.813Z,64.89
2023-03-17T08:46:53.813Z,65.09
2023-03-17T08:47:53.777Z,64.68
2023-03-17T08:48:53.763Z,65.19
2023-03-17T08:49:53.748Z,66.18
2023-03-17T08:50:53.739Z,64.96
2023-03-17T08:51:53.743Z,65.67
2023-03-17T08:52:53.715Z,64.14
2023-03-17T08:53:53.694Z,65.06
2023-03-17T08:54:53.676Z,64.55
2023-03-17T08:55:53.677Z,65.16
2023-03-17T08:56:53.666Z,64.45
2023-03-17T08:57:53.649Z,63.70
2023-03-17T08:58:53.631Z,64.72
2023-03-17T08:59:53.621Z,64.01
2023-03-17T09:00:53.597Z,63.09
2023-03-17T09:01:53.711Z,63.09
2023-03-17T09:02:53.620Z,63.26
2023-03-17T09:03:53.580Z,63.37
2023-03-17T09:04:53.564Z,63.57
2023-03-17T09:05:53.539Z,63.16
2023-03-17T09:07:02.930Z,62.24
2023-03-17T09:07:54.598Z,62.14
2023-03-17T09:08:53.500Z,62.96
2023-03-17T09:09:53.490Z,62.55
2023-03-17T09:10:53.479Z,62.76
2023-03-17T09:11:53.481Z,62.32
2023-03-17T09:12:53.446Z,62.11
2023-03-17T09:13:53.431Z,62.45
2023-03-17T09:14:53.421Z,62.52
2023-03-17T09:15:53.502Z,62.42
2023-03-17T09:16:53.411Z,63.03
2023-03-17T09:17:53.381Z,61.91
2023-03-17T09:18:53.375Z,61.47
2023-03-17T09:19:53.354Z,60.55
2023-03-17T09:20:53.340Z,60.96
2023-03-17T09:21:53.351Z,60.76
2023-03-17T09:22:53.312Z,60.55
2023-03-17T09:23:53.298Z,61.04
2023-03-17T09:24:53.341Z,60.93
2023-03-17T09:25:53.269Z,60.53
2023-03-17T09:26:53.270Z,60.09
2023-03-17T09:27:53.259Z,60.39
2023-03-17T09:28:53.220Z,60.09
2023-03-17T09:29:53.225Z,61.11
2023-03-17T09:30:53.246Z,58.76
2023-03-17T09:31:53.229Z,59.78
2023-03-17T09:32:53.286Z,60.30
2023-03-17T09:33:53.181Z,59.25
2023-03-17T09:34:53.154Z,59.75
2023-03-17T09:35:53.222Z,59.05
2023-03-17T09:36:53.144Z,59.14
2023-03-17T09:37:53.119Z,58.94
2023-03-17T09:38:53.089Z,58.61
2023-03-17T09:39:53.097Z,58.20
2023-03-17T09:40:53.075Z,58.61
2023-03-17T09:41:53.087Z,57.79
2023-03-17T09:42:53.043Z,58.40
2023-03-17T09:43:53.032Z,58.10
2023-03-17T09:44:53.013Z,57.79
2023-03-17T09:45:53.005Z,58.61
2023-03-17T09:46:53.097Z,57.90
2023-03-17T09:47:52.988Z,58.40
2023-03-17T09:48:52.954Z,57.79
2023-03-17T09:49:52.947Z,58.00
2023-03-17T09:50:52.944Z,57.69
2023-03-17T09:51:52.966Z,58.10
2023-03-17T09:52:52.911Z,57.18
2023-03-17T09:53:52.906Z,58.30
2023-03-17T09:54:52.873Z,57.79
2023-03-17T09:55:52.884Z,57.49
2023-03-17T09:56:52.866Z,56.95
2023-03-17T09:57:52.843Z,57.67
2023-03-17T09:58:52.827Z,57.97
2023-03-17T09:59:52.819Z,58.17
2023-03-17T10:00:52.799Z,57.77
2023-03-17T10:01:52.828Z,58.07
2023-03-17T10:02:52.768Z,57.77
2023-03-17T10:03:52.791Z,57.77
2023-03-17T10:04:52.742Z,57.97
2023-03-17T10:05:52.812Z,58.28
2023-03-17T10:06:52.726Z,57.54
2023-03-17T10:07:52.708Z,57.84
2023-03-17T10:08:52.720Z,57.64
2023-03-17T10:09:52.677Z,57.84
2023-03-17T10:10:52.669Z,57.64
2023-03-17T10:11:52.675Z,58.65
2023-03-17T10:12:52.646Z,57.74
2023-03-17T10:13:52.665Z,57.87
2023-03-17T10:14:52.621Z,57.74
2023-03-17T10:15:54.301Z,58.45
2023-03-17T10:16:52.620Z,57.84
2023-03-17T10:17:52.586Z,57.56
2023-03-17T10:18:52.556Z,58.25
2023-03-17T10:19:52.551Z,57.95
2023-03-17T10:20:52.555Z,57.84
2023-03-17T10:21:52.552Z,57.74
2023-03-17T10:22:52.518Z,56.93
2023-03-17T10:23:52.534Z,57.31
2023-03-17T10:24:52.486Z,57.21
2023-03-17T10:25:52.479Z,57.81
2023-03-17T10:26:52.452Z,57.48
2023-03-17T10:27:52.454Z,57.79
2023-03-17T10:28:52.441Z,57.21
2023-03-17T10:29:52.421Z,57.21
2023-03-17T10:30:52.399Z,57.81
2023-03-17T10:31:52.459Z,57.00
2023-03-17T10:32:52.523Z,57.81
2023-03-17T10:33:52.393Z,58.12
2023-03-17T10:34:52.344Z,57.81
2023-03-17T10:35:52.365Z,57.48
2023-03-17T10:36:52.341Z,56.98
2023-03-17T10:38:04.333Z,56.95
2023-03-17T10:38:53.292Z,56.65
2023-03-17T10:39:52.293Z,56.62
2023-03-17T10:40:52.265Z,56.41
2023-03-17T10:41:52.262Z,56.70
2023-03-17T10:42:52.255Z,56.39
2023-03-17T10:43:52.236Z,56.09
2023-03-17T10:44:52.213Z,55.37
2023-03-17T10:45:52.207Z,54.69
2023-03-17T10:46:52.211Z,55.27
2023-03-17T10:47:52.197Z,54.57
2023-03-17T10:48:52.175Z,54.97
2023-03-17T10:49:52.155Z,55.07
2023-03-17T10:50:52.925Z,55.07
2023-03-17T10:51:52.126Z,55.17
2023-03-17T10:52:52.126Z,54.77
2023-03-17T10:53:52.098Z,54.33
2023-03-17T10:54:52.081Z,54.33
2023-03-17T10:55:52.091Z,54.24
2023-03-17T10:56:52.057Z,54.21
2023-03-17T10:57:52.065Z,53.80
2023-03-17T10:58:52.066Z,54.31
2023-03-17T10:59:52.385Z,54.89
2023-03-17T11:00:52.034Z,53.96
2023-03-17T11:01:51.991Z,53.63
2023-03-17T11:02:51.999Z,53.70
2023-03-17T11:03:52.017Z,53.38
2023-03-17T11:04:51.950Z,52.74
2023-03-17T11:05:51.950Z,52.29
2023-03-17T11:06:51.940Z,50.20
2023-03-17T11:07:51.944Z,48.08
2023-03-17T11:08:51.894Z,48.50
2023-03-17T11:09:51.883Z,48.79
2023-03-17T11:10:51.871Z,47.88
2023-03-17T11:11:51.864Z,47.35
2023-03-17T11:12:51.882Z,47.25
2023-03-17T11:13:51.844Z,47.90
2023-03-17T11:14:51.818Z,47.17
2023-03-17T11:15:51.807Z,46.93
2023-03-17T11:16:51.838Z,46.20
2023-03-17T11:17:51.805Z,46.48
2023-03-17T11:18:51.767Z,46.10
2023-03-17T11:19:51.756Z,46.08
2023-03-17T11:20:51.737Z,45.53
2023-03-17T11:21:51.831Z,45.10
2023-03-17T11:22:51.727Z,44.91
2023-03-17T11:23:51.734Z,44.48
2023-03-17T11:24:51.699Z,44.44
2023-03-17T11:25:51.670Z,44.02
2023-03-17T11:26:51.673Z,43.12
2023-03-17T11:27:51.653Z,43.74
2023-03-17T11:28:51.661Z,44.00
2023-03-17T11:29:51.620Z,43.19
2023-03-17T11:30:51.600Z,42.68
2023-03-17T11:31:51.617Z,42.18
2023-03-17T11:32:51.608Z,41.99
2023-03-17T11:33:51.610Z,41.82
2023-03-17T11:34:51.556Z,43.04
2023-03-17T11:35:51.604Z,42.99
2023-03-17T11:36:51.525Z,42.46
2023-03-17T11:37:51.695Z,41.55
2023-03-17T11:38:51.534Z,41.31
2023-03-17T11:39:51.492Z,41.11
2023-03-17T11:40:51.480Z,42.24
2023-03-17T11:41:51.467Z,41.55
2023-03-17T11:42:51.452Z,41.35
2023-03-17T11:43:51.456Z,42.27
2023-03-17T11:44:51.427Z,42.63
2023-03-17T11:45:51.441Z,43.34
2023-03-17T11:46:51.396Z,43.74
2023-03-17T11:47:51.409Z,43.52
2023-03-17T11:48:51.367Z,43.82
2023-03-17T11:49:51.447Z,43.02
2023-03-17T11:50:51.353Z,43.42
2023-03-17T11:51:51.342Z,43.40
2023-03-17T11:52:51.330Z,43.02
2023-03-17T11:53:51.312Z,43.34
2023-03-17T11:54:52.896Z,44.12
2023-03-17T11:55:51.288Z,42.60
2023-03-17T11:56:51.283Z,43.19
2023-03-17T11:57:51.284Z,43.52
2023-03-17T11:58:51.238Z,44.14
2023-03-17T11:59:51.238Z,43.66
2023-03-17T12:00:51.230Z,44.26
2023-03-17T12:01:51.200Z,43.36
2023-03-17T12:02:51.201Z,43.54
2023-03-17T12:03:51.302Z,44.87
2023-03-17T12:04:51.225Z,45.23
2023-03-17T12:05:51.157Z,45.75
2023-03-17T12:06:51.160Z,45.90
2023-03-17T12:07:51.135Z,46.50
2023-03-17T12:08:51.099Z,46.40
2023-03-17T12:09:51.090Z,47.75
2023-03-17T12:10:51.084Z,47.63
2023-03-17T12:11:51.063Z,47.74
2023-03-17T12:12:51.073Z,47.61
2023-03-17T12:13:51.040Z,47.71
2023-03-17T12:14:51.038Z,47.51
2023-03-17T12:15:51.145Z,47.53
2023-03-17T12:16:50.993Z,47.74
2023-03-17T12:17:51.021Z,47.75
2023-03-17T12:18:50.971Z,48.16
2023-03-17T12:19:50.972Z,48.56
2023-03-17T12:20:50.949Z,48.38
2023-03-17T12:21:50.955Z,49.49
2023-03-17T12:22:50.945Z,48.49
2023-03-17T12:23:50.930Z,47.78
2023-03-17T12:24:50.885Z,47.58
2023-03-17T12:25:50.884Z,48.49
2023-03-17T12:26:50.857Z,48.18
2023-03-17T12:27:50.854Z,48.18
2023-03-17T12:28:50.856Z,48.38
2023-03-17T12:29:50.825Z,47.55
2023-03-17T12:30:50.909Z,48.66
2023-03-17T12:31:50.806Z,47.15
2023-03-17T12:32:50.800Z,47.45
2023-03-17T12:33:50.796Z,47.96
2023-03-17T12:34:50.763Z,47.15
2023-03-17T12:35:50.773Z,47.33
2023-03-17T12:36:50.736Z,47.55
2023-03-17T12:37:50.727Z,47.75
2023-03-17T12:38:50.739Z,48.26
2023-03-17T12:39:50.700Z,48.26
2023-03-17T12:40:50.685Z,47.94
2023-03-17T12:41:50.676Z,48.26
2023-03-17T12:42:50.662Z,49.16
2023-03-17T12:43:50.659Z,48.56
2023-03-17T12:44:50.619Z,48.06
2023-03-17T12:45:52.074Z,48.16
2023-03-17T12:46:50.672Z,49.27
2023-03-17T12:47:50.591Z,48.86
2023-03-17T12:48:50.590Z,48.46
2023-03-17T12:49:50.573Z,50.10
2023-03-17T12:50:50.553Z,49.39
2023-03-17T12:51:50.539Z,49.11